Mediapolis, Iowa
Current Conditions -  °F | °C
As of 9:53 AM on Tuesday 21 Oct 2014 (Local Time) from KBRL Reporting Station
Clear Clear  
Wind Chill: 52°   Ceiling: Unl
Heat Index: 52°   Visibility: 10mi
Dew Point: 44°   Wind: 12mph
Humidity: 74%   Direction: 60°ENE
Pressure: 30.18"   Gusts: NA
Location:  41.01°N, 91.16°W
Report Text: KBRL 211453Z AUTO 06010KT 10SM CLR 11/07 A3018 RMK AO2 SLP221 T01110067 51019
Loading
Personal Weather Stations






























Interactive Weather Map
Tropical Storm Tracking
New forecast layout! Learn more

10-Day Weather Forecast

Advertisements
Track Severe Weather on mobile